Lanse, Michigan
Current Conditions -  °F | °C
As of 1:01 AM on Monday 22 Dec 2014 (Local Time) from KCMX Reporting Station
Light Snow Light Snow  
Wind Chill: 24°   Ceiling: 200
Heat Index: 32°   Visibility: 1mi
Dew Point: 31°   Wind: 9mph
Humidity: 96%   Direction: 150°SSE
Pressure: 29.83"   Gusts: NA
Location:  46.76°N, 88.45°W
Report Text: KCMX 220601Z AUTO 15008KT 1SM -SN BR OVC002 00/M01 A2983 RMK AO2 P0000 T00001006
Loading
Personal Weather Stations






























Interactive Weather Map New forecast layout! Learn more

10-Day Weather Forecast

Advertisements
Track Severe Weather on mobile